Time;durP1;ratioP1;P1;durP2;ratioP2;P2;SDS_P1;SDS_P2;PMS_P1;PMS_P2;Temp;Humidity;BMP_temperature;BMP_pressure;BME280_temperature;BME280_humidity;BME280_pressure;Samples;Min_cycle;Max_cycle;Signal;HPM_P1;HPM_P2
2021/04/08 00:01:13;;;;;;;1.90;0.40;;;;;;;9.53;56.20;100502.13;4916400;28;127372;-58
2021/04/08 00:03:39;;;;;;;1.30;0.35;;;;;;;9.68;55.98;100506.81;4923700;28;98224;-62
2021/04/08 00:06:06;;;;;;;1.42;0.38;;;;;;;9.67;56.32;100504.34;4922115;28;99214;-61
2021/04/08 00:08:32;;;;;;;1.70;0.40;;;;;;;9.69;56.07;100508.41;4921977;28;107233;-62
2021/04/08 00:10:58;;;;;;;1.88;0.30;;;;;;;9.69;56.26;100513.81;4825235;28;120118;-62
2021/04/08 00:13:24;;;;;;;1.58;0.40;;;;;;;9.74;55.94;100513.00;4825210;28;108924;-62
2021/04/08 00:15:50;;;;;;;2.70;0.50;;;;;;;9.74;55.77;100521.91;4829728;28;126745;-59
2021/04/08 00:18:17;;;;;;;2.03;0.40;;;;;;;9.67;55.99;100518.66;4828169;28;98736;-58
2021/04/08 00:20:43;;;;;;;1.80;0.30;;;;;;;9.61;55.61;100524.25;4826025;28;97941;-59
2021/04/08 00:23:10;;;;;;;1.67;0.40;;;;;;;9.71;55.50;100527.81;4808673;28;100609;-59
2021/04/08 00:25:39;;;;;;;2.08;0.60;;;;;;;9.66;55.93;100530.47;4826487;28;105978;-59
2021/04/08 00:28:05;;;;;;;1.60;0.32;;;;;;;9.62;55.81;100531.25;4825263;28;98537;-62
2021/04/08 00:30:42;;;;;;;1.95;0.40;;;;;;;9.64;55.82;100537.19;4815110;28;98731;-62
2021/04/08 00:33:12;;;;;;;2.25;0.40;;;;;;;9.64;55.48;100531.81;4826629;28;97979;-62
2021/04/08 00:35:38;;;;;;;2.72;0.80;;;;;;;9.59;55.53;100541.47;4825962;28;98482;-59
2021/04/08 00:38:04;;;;;;;2.55;0.70;;;;;;;9.52;55.84;100546.25;4882745;28;106918;-58
2021/04/08 00:40:30;;;;;;;2.08;0.63;;;;;;;9.56;55.71;100541.97;4922978;28;98174;-62
2021/04/08 00:42:56;;;;;;;1.67;0.57;;;;;;;9.57;55.26;100554.38;4925086;28;97665;-59
2021/04/08 00:45:22;;;;;;;2.47;0.50;;;;;;;9.51;55.34;100550.03;4921897;28;117929;-62
2021/04/08 00:47:48;;;;;;;2.05;0.60;;;;;;;9.49;55.37;100562.91;4923447;28;100615;-62
2021/04/08 00:50:15;;;;;;;2.60;0.70;;;;;;;9.45;55.51;100561.00;4923240;28;125258;-59
2021/04/08 00:52:57;;;;;;;2.97;0.80;;;;;;;9.43;56.13;100561.28;4923826;28;103678;-62
2021/04/08 00:55:27;;;;;;;3.93;0.63;;;;;;;9.48;56.03;100574.75;4900448;28;100705;-62
2021/04/08 00:57:55;;;;;;;2.58;0.73;;;;;;;9.41;55.67;100571.47;4924031;28;98991;-59
2021/04/08 01:00:23;;;;;;;3.00;0.60;;;;;;;9.45;55.80;100577.97;4930648;28;115120;-62
2021/04/08 01:02:49;;;;;;;4.03;0.88;;;;;;;9.42;55.73;100577.66;4890595;28;98219;-62
2021/04/08 01:05:15;;;;;;;3.55;0.90;;;;;;;9.35;55.71;100577.84;4843176;28;121896;-58
2021/04/08 01:07:41;;;;;;;1.95;0.80;;;;;;;9.42;55.57;100575.78;4922410;28;98402;-59
2021/04/08 01:10:09;;;;;;;2.92;0.55;;;;;;;9.38;55.56;100581.94;4922864;28;98004;-59
2021/04/08 01:12:35;;;;;;;2.83;0.75;;;;;;;9.36;55.83;100582.19;4923698;28;97714;-59
2021/04/08 01:15:06;;;;;;;2.55;0.90;;;;;;;9.32;55.79;100592.66;4936773;28;122901;-59
2021/04/08 01:17:50;;;;;;;2.17;0.60;;;;;;;9.33;55.73;100590.78;4912510;28;108777;-59
2021/04/08 01:21:06;;;;;;;2.80;0.82;;;;;;;9.28;56.04;100598.81;4905536;28;100083;-58
2021/04/08 01:24:14;;;;;;;3.35;0.90;;;;;;;9.20;55.97;100602.78;4923897;28;97918;-58
2021/04/08 01:27:25;;;;;;;3.55;1.02;;;;;;;9.22;55.74;100614.06;4931214;28;98775;-59
2021/04/08 01:30:31;;;;;;;3.47;0.80;;;;;;;9.16;55.67;100615.09;4918675;28;99609;-62
2021/04/08 01:32:57;;;;;;;3.03;0.88;;;;;;;9.24;55.65;100621.91;4923106;28;98399;-59
2021/04/08 01:35:28;;;;;;;3.05;0.82;;;;;;;9.16;55.10;100620.47;4843017;28;115075;-62
2021/04/08 01:38:24;;;;;;;2.45;0.50;;;;;;;9.20;55.35;100616.22;4826290;28;98468;-62
2021/04/08 01:40:51;;;;;;;3.92;0.77;;;;;;;9.23;55.11;100622.94;4809182;28;97998;-62
2021/04/08 01:43:21;;;;;;;4.55;0.70;;;;;;;9.07;55.43;100628.16;4806520;28;125628;-58
2021/04/08 01:45:48;;;;;;;3.25;0.77;;;;;;;9.15;55.40;100620.72;4809047;28;97980;-59
2021/04/08 01:48:15;;;;;;;2.97;0.80;;;;;;;9.18;55.14;100626.41;4807668;28;117665;-59
2021/04/08 01:50:41;;;;;;;2.17;0.73;;;;;;;9.20;54.78;100632.34;4805978;28;124210;-61
2021/04/08 01:53:07;;;;;;;3.53;0.85;;;;;;;9.20;55.23;100631.53;4825194;28;127517;-62
2021/04/08 01:55:34;;;;;;;2.85;0.73;;;;;;;9.18;55.20;100626.41;4920396;28;115589;-59
2021/04/08 01:58:00;;;;;;;2.75;0.57;;;;;;;9.11;54.82;100633.84;4930050;28;101575;-62
2021/04/08 02:00:27;;;;;;;2.47;0.57;;;;;;;9.18;54.89;100623.72;4919481;28;98505;-62
2021/04/08 02:02:55;;;;;;;3.72;0.63;;;;;;;9.17;54.24;100632.84;4923295;28;98365;-59
2021/04/08 02:05:23;;;;;;;3.38;0.70;;;;;;;9.17;54.61;100634.75;4922966;28;97776;-58
2021/04/08 02:07:50;;;;;;;3.38;0.70;;;;;;;9.15;54.83;100623.41;4920907;28;98335;-62
2021/04/08 02:10:16;;;;;;;2.55;0.50;;;;;;;9.14;55.18;100627.16;4904251;28;114131;-62
2021/04/08 02:12:46;;;;;;;4.03;0.60;;;;;;;9.05;54.70;100635.69;4936148;28;98069;-62
2021/04/08 02:15:14;;;;;;;3.47;0.70;;;;;;;9.09;54.62;100633.31;4865329;28;98007;-62
2021/04/08 02:17:40;;;;;;;2.35;0.40;;;;;;;9.09;54.78;100634.13;4829450;28;109751;-59
2021/04/08 02:20:18;;;;;;;2.63;0.70;;;;;;;9.02;54.22;100643.44;4806529;28;99201;-62
2021/04/08 02:22:50;;;;;;;3.83;0.60;;;;;;;9.05;54.01;100642.94;4898963;28;98248;-59
2021/04/08 02:25:17;;;;;;;2.90;0.60;;;;;;;9.02;54.80;100646.94;4806959;28;103493;-59
2021/04/08 02:27:43;;;;;;;3.03;0.40;;;;;;;8.99;54.56;100655.50;4806809;28;128443;-59
2021/04/08 02:30:17;;;;;;;2.90;0.50;;;;;;;9.01;54.87;100653.41;4876917;28;98365;-62
2021/04/08 02:32:43;;;;;;;2.63;0.40;;;;;;;8.92;54.62;100659.44;4921448;28;97898;-62
2021/04/08 02:35:12;;;;;;;3.20;0.57;;;;;;;8.99;54.39;100660.88;4919451;28;106450;-58
2021/04/08 02:37:38;;;;;;;2.78;0.60;;;;;;;8.99;54.71;100671.66;4917244;28;97789;-59
2021/04/08 02:40:07;;;;;;;4.47;0.70;;;;;;;8.98;55.17;100661.16;4902493;28;98851;-62
2021/04/08 02:42:33;;;;;;;2.38;0.50;;;;;;;8.90;55.22;100675.84;4921580;28;98365;-62
2021/04/08 02:44:59;;;;;;;3.35;0.50;;;;;;;8.93;54.87;100680.72;4920962;28;117920;-58
2021/04/08 02:47:25;;;;;;;2.25;0.50;;;;;;;8.84;55.09;100679.53;4921386;28;100005;-59
2021/04/08 02:49:51;;;;;;;2.38;0.40;;;;;;;8.81;55.23;100674.69;4883645;28;126549;-58
2021/04/08 02:52:20;;;;;;;3.00;0.60;;;;;;;8.85;55.32;100678.50;4807906;28;98237;-59
2021/04/08 02:54:53;;;;;;;3.20;0.47;;;;;;;8.80;55.52;100690.00;4806963;28;98000;-62
2021/04/08 02:57:28;;;;;;;3.53;0.47;;;;;;;8.81;55.69;100685.44;4807350;28;98121;-62
2021/04/08 03:00:04;;;;;;;2.45;0.50;;;;;;;8.85;55.83;100697.31;4812783;28;99241;-62
2021/04/08 03:02:30;;;;;;;4.32;0.70;;;;;;;8.74;55.88;100690.16;4806728;28;116703;-62
2021/04/08 03:04:58;;;;;;;2.88;0.60;;;;;;;8.74;55.81;100696.34;4806867;28;106614;-59
2021/04/08 03:07:28;;;;;;;3.38;0.68;;;;;;;8.68;55.69;100702.72;4822330;28;98262;-62
2021/04/08 03:09:55;;;;;;;4.05;0.70;;;;;;;8.69;55.95;100708.94;4822389;28;98474;-58
2021/04/08 03:12:21;;;;;;;3.67;0.60;;;;;;;8.67;55.97;100711.84;4809445;28;114449;-62
2021/04/08 03:14:50;;;;;;;3.83;0.60;;;;;;;8.67;56.09;100714.53;4903292;28;99180;-61
2021/04/08 03:17:18;;;;;;;3.40;0.40;;;;;;;8.72;56.05;100719.16;4908936;28;98833;-59
2021/04/08 03:19:45;;;;;;;6.05;0.80;;;;;;;8.66;56.24;100725.53;4810026;28;98524;-58
2021/04/08 03:22:11;;;;;;;5.43;0.80;;;;;;;8.66;56.25;100728.22;4809495;28;98401;-58
2021/04/08 03:24:37;;;;;;;3.28;0.60;;;;;;;8.66;56.43;100723.66;4809560;28;107580;-61
2021/04/08 03:27:03;;;;;;;4.03;0.73;;;;;;;8.65;56.18;100723.91;4818649;28;98795;-59
2021/04/08 03:29:29;;;;;;;5.22;0.70;;;;;;;8.62;56.19;100727.09;4903452;28;99658;-62
2021/04/08 03:31:56;;;;;;;2.42;0.50;;;;;;;8.64;56.40;100739.22;4922964;28;120669;-61
2021/04/08 03:34:22;;;;;;;3.58;0.40;;;;;;;8.63;56.35;100742.16;4923352;28;97993;-58
2021/04/08 03:36:48;;;;;;;2.13;0.52;;;;;;;8.63;56.08;100744.84;4923578;28;99203;-58
2021/04/08 03:39:14;;;;;;;2.42;0.50;;;;;;;8.64;56.31;100736.53;4867521;28;111761;-62
2021/04/08 03:41:42;;;;;;;3.22;0.60;;;;;;;8.61;56.09;100731.66;4810093;28;109334;-58
2021/04/08 03:44:12;;;;;;;4.03;0.80;;;;;;;8.60;56.63;100751.50;4827364;28;97789;-62
2021/04/08 03:46:46;;;;;;;4.07;0.50;;;;;;;8.54;56.17;100753.31;4879847;28;112853;-62
2021/04/08 03:49:14;;;;;;;3.67;0.60;;;;;;;8.58;56.14;100757.16;4937932;28;99549;-62
2021/04/08 03:51:40;;;;;;;2.33;0.50;;;;;;;8.55;56.29;100754.13;4922066;28;97960;-62
2021/04/08 03:54:10;;;;;;;3.28;0.52;;;;;;;8.57;56.54;100768.16;4922136;28;107575;-62
2021/04/08 03:56:39;;;;;;;2.92;0.60;;;;;;;8.56;56.39;100761.94;4922121;28;98260;-62
2021/04/08 03:59:05;;;;;;;5.47;0.73;;;;;;;8.56;56.09;100771.88;4914603;28;99244;-59
2021/04/08 04:01:34;;;;;;;2.92;0.40;;;;;;;8.60;56.09;100768.44;4839258;28;118467;-62
2021/04/08 04:04:00;;;;;;;4.28;0.50;;;;;;;8.52;56.62;100766.19;4809559;28;108882;-62
2021/04/08 04:06:27;;;;;;;4.05;0.60;;;;;;;8.60;56.26;100762.25;4824342;28;99256;-58
2021/04/08 04:08:53;;;;;;;3.35;0.50;;;;;;;8.58;56.50;100772.47;4856449;28;98800;-58
2021/04/08 04:11:19;;;;;;;3.53;0.70;;;;;;;8.56;56.12;100777.25;4906073;28;103382;-62
2021/04/08 04:13:47;;;;;;;3.80;0.70;;;;;;;8.48;56.31;100780.34;4910049;28;109506;-62
2021/04/08 04:16:14;;;;;;;2.67;0.47;;;;;;;8.54;56.26;100799.00;4914345;28;105762;-59
2021/04/08 04:18:40;;;;;;;3.05;0.60;;;;;;;8.58;56.31;100794.78;4906525;28;98661;-62
2021/04/08 04:21:06;;;;;;;4.40;0.80;;;;;;;8.55;56.28;100803.31;4921223;28;98293;-58
2021/04/08 04:23:32;;;;;;;3.33;0.60;;;;;;;8.53;56.61;100800.06;4923117;28;99958;-58
2021/04/08 04:25:58;;;;;;;3.30;0.55;;;;;;;8.50;56.82;100794.38;4920527;28;127035;-59
2021/04/08 04:28:24;;;;;;;2.30;0.40;;;;;;;8.48;56.38;100791.91;4903759;28;122328;-62
2021/04/08 04:30:50;;;;;;;3.40;0.70;;;;;;;8.44;57.02;100796.16;4904395;28;126324;-58
2021/04/08 04:33:16;;;;;;;2.78;0.60;;;;;;;8.45;56.86;100797.81;4903952;28;97772;-58
2021/04/08 04:35:42;;;;;;;2.45;0.50;;;;;;;8.45;57.00;100799.66;4824419;28;111602;-62
2021/04/08 04:38:08;;;;;;;4.10;0.80;;;;;;;8.46;56.84;100799.41;4823596;28;123574;-62
2021/04/08 04:40:34;;;;;;;3.55;0.95;;;;;;;8.44;57.34;100801.53;4825349;28;127162;-58
2021/04/08 04:43:00;;;;;;;2.92;0.68;;;;;;;8.45;56.91;100805.03;4884261;28;117908;-62
2021/04/08 04:45:26;;;;;;;4.25;0.70;;;;;;;8.45;57.06;100800.50;4923177;28;125059;-58
2021/04/08 04:47:52;;;;;;;4.63;0.63;;;;;;;8.41;57.02;100806.56;4922085;28;119107;-62
2021/04/08 04:50:18;;;;;;;3.00;0.68;;;;;;;8.41;57.16;100812.78;4905355;28;125322;-62
2021/04/08 04:52:44;;;;;;;2.97;0.60;;;;;;;8.46;56.99;100812.03;4923493;28;116872;-62
2021/04/08 04:55:11;;;;;;;3.28;0.70;;;;;;;8.45;57.07;100813.91;4905758;28;97956;-59
2021/04/08 04:57:37;;;;;;;2.67;0.50;;;;;;;8.47;57.23;100816.34;4922353;28;98635;-58
2021/04/08 05:00:05;;;;;;;3.13;0.60;;;;;;;8.42;57.04;100822.47;4920838;28;98290;-59
2021/04/08 05:02:31;;;;;;;3.38;0.52;;;;;;;8.50;57.10;100829.31;4922371;28;98001;-59
2021/04/08 05:04:57;;;;;;;4.38;0.75;;;;;;;8.52;56.92;100835.22;4877885;28;119444;-62
2021/04/08 05:07:23;;;;;;;2.85;0.50;;;;;;;8.60;56.51;100834.81;4824356;28;127129;-59
2021/04/08 05:09:49;;;;;;;3.80;0.70;;;;;;;8.63;56.59;100836.22;4829716;28;127556;-62
2021/04/08 05:12:15;;;;;;;3.55;0.68;;;;;;;8.69;56.64;100848.69;4923909;28;97763;-58
2021/04/08 05:14:41;;;;;;;2.53;0.63;;;;;;;8.73;56.71;100844.44;4921877;28;98699;-61
2021/04/08 05:17:07;;;;;;;2.92;0.55;;;;;;;8.80;56.63;100835.16;4914417;28;98672;-58
2021/04/08 05:19:34;;;;;;;2.38;0.55;;;;;;;8.87;56.30;100852.97;4834722;28;120177;-63
2021/04/08 05:22:00;;;;;;;4.85;0.80;;;;;;;8.92;56.11;100864.63;4822720;28;98039;-59
2021/04/08 05:24:26;;;;;;;3.28;0.50;;;;;;;8.96;56.15;100863.06;4822681;28;98613;-58
2021/04/08 05:26:52;;;;;;;3.00;0.70;;;;;;;9.08;55.90;100861.09;4822327;28;98503;-59
2021/04/08 05:29:18;;;;;;;4.55;0.70;;;;;;;9.18;55.66;100867.66;4827295;28;98339;-62
2021/04/08 05:31:44;;;;;;;3.92;0.70;;;;;;;9.22;55.86;100871.50;4822084;28;97924;-62
2021/04/08 05:34:10;;;;;;;4.47;0.73;;;;;;;9.29;55.64;100874.81;4858369;28;125206;-59
2021/04/08 05:36:36;;;;;;;4.35;0.60;;;;;;;9.32;55.68;100877.00;4821222;28;127534;-62
2021/04/08 05:39:03;;;;;;;3.80;0.90;;;;;;;9.34;55.80;100878.38;4861426;28;127552;-59
2021/04/08 05:41:29;;;;;;;3.40;0.70;;;;;;;9.46;55.58;100886.34;4843630;28;98003;-59
2021/04/08 05:43:55;;;;;;;3.30;0.60;;;;;;;9.52;55.06;100888.03;4822851;28;98355;-62
2021/04/08 05:46:21;;;;;;;3.22;0.70;;;;;;;9.53;54.61;100886.97;4820599;28;98355;-59
2021/04/08 05:48:47;;;;;;;4.00;0.80;;;;;;;9.56;54.97;100896.44;4843511;28;121319;-62
2021/04/08 05:51:13;;;;;;;4.00;0.60;;;;;;;9.61;54.94;100896.47;4822115;28;98193;-59
2021/04/08 05:53:39;;;;;;;4.63;0.80;;;;;;;9.60;54.77;100892.19;4820529;28;127844;-62
2021/04/08 05:56:05;;;;;;;4.60;0.77;;;;;;;9.66;55.07;100901.13;4819887;28;124552;-62
2021/04/08 05:58:31;;;;;;;3.85;0.60;;;;;;;9.74;55.16;100903.38;4821429;28;97987;-59
2021/04/08 06:00:58;;;;;;;3.00;0.70;;;;;;;9.80;54.82;100911.25;4821561;28;118066;-62
2021/04/08 06:03:24;;;;;;;3.10;0.57;;;;;;;9.91;54.48;100912.19;4854497;28;128306;-61
2021/04/08 06:05:50;;;;;;;2.55;0.52;;;;;;;9.89;54.75;100922.41;4820518;28;98667;-62
2021/04/08 06:08:16;;;;;;;4.15;0.98;;;;;;;9.96;54.66;100923.03;4829592;28;98087;-62
2021/04/08 06:10:42;;;;;;;2.47;0.52;;;;;;;9.98;54.91;100931.69;4849581;28;97947;-59
2021/04/08 06:13:08;;;;;;;3.20;0.60;;;;;;;10.00;54.67;100932.22;4828070;28;128263;-59
2021/04/08 06:15:35;;;;;;;3.90;0.57;;;;;;;9.98;55.12;100936.22;4821665;28;126384;-62
2021/04/08 06:18:01;;;;;;;3.45;0.60;;;;;;;9.96;55.00;100932.97;4829251;28;97922;-59
2021/04/08 06:20:27;;;;;;;2.95;0.52;;;;;;;9.91;55.95;100943.72;4821010;28;117657;-59
2021/04/08 06:22:53;;;;;;;5.13;0.70;;;;;;;9.91;55.25;100936.44;4827226;28;117947;-62
2021/04/08 06:25:20;;;;;;;3.50;0.60;;;;;;;10.09;54.66;100938.78;4815391;28;99259;-62
2021/04/08 06:27:46;;;;;;;3.15;0.60;;;;;;;10.21;55.04;100946.72;4821827;28;98957;-62
2021/04/08 06:30:13;;;;;;;3.22;0.70;;;;;;;10.29;54.37;100945.50;4841034;28;117806;-62
2021/04/08 06:32:39;;;;;;;3.28;0.50;;;;;;;10.37;54.43;100950.41;4821079;28;105307;-62
2021/04/08 06:35:07;;;;;;;4.15;0.65;;;;;;;10.37;53.77;100961.19;4841338;28;98809;-62
2021/04/08 06:37:33;;;;;;;3.53;0.60;;;;;;;10.38;54.17;100962.03;4821473;28;98763;-62
2021/04/08 06:39:59;;;;;;;4.25;0.77;;;;;;;10.35;54.56;100957.16;4821471;28;97939;-59
2021/04/08 06:42:25;;;;;;;3.38;0.60;;;;;;;10.24;54.45;100965.09;4821794;28;98331;-59
2021/04/08 06:44:53;;;;;;;4.28;0.70;;;;;;;10.16;54.80;100973.63;4859208;28;113050;-62
2021/04/08 06:47:25;;;;;;;4.50;0.85;;;;;;;10.12;55.60;100977.88;4819788;28;98367;-59
2021/04/08 06:49:55;;;;;;;4.32;0.60;;;;;;;10.11;55.17;100991.63;4820008;28;103976;-59
2021/04/08 06:52:22;;;;;;;4.60;0.60;;;;;;;10.05;55.49;100994.22;4803469;28;99143;-62
2021/04/08 06:54:48;;;;;;;5.05;0.80;;;;;;;10.08;55.57;101001.00;4826991;28;99080;-61
2021/04/08 06:57:18;;;;;;;3.38;0.80;;;;;;;10.01;55.75;101006.56;4818015;28;119060;-59
2021/04/08 06:59:45;;;;;;;5.30;0.73;;;;;;;10.00;56.08;101012.22;4822223;28;98141;-59
2021/04/08 07:02:17;;;;;;;5.22;0.77;;;;;;;9.98;55.46;101004.41;4819383;28;98426;-59
2021/04/08 07:04:43;;;;;;;3.15;0.75;;;;;;;9.99;55.21;101011.41;4881700;28;98830;-62
2021/04/08 07:07:09;;;;;;;3.95;0.60;;;;;;;9.98;55.83;101017.88;4826794;28;98452;-62
2021/04/08 07:09:35;;;;;;;4.82;0.85;;;;;;;9.99;55.37;101018.66;4826205;28;117344;-59
2021/04/08 07:12:01;;;;;;;3.72;0.65;;;;;;;10.05;55.26;101017.66;4820091;28;121042;-62
2021/04/08 07:14:27;;;;;;;4.10;0.68;;;;;;;10.20;54.57;101017.03;4836322;28;98457;-62
2021/04/08 07:16:53;;;;;;;4.35;0.88;;;;;;;10.40;54.10;101014.59;4841393;28;98053;-59
2021/04/08 07:19:19;;;;;;;3.03;0.50;;;;;;;10.43;54.66;101021.38;4819541;28;98344;-62
2021/04/08 07:21:45;;;;;;;3.95;0.68;;;;;;;10.45;54.25;101022.75;4819656;28;119589;-59
2021/04/08 07:24:17;;;;;;;3.88;0.68;;;;;;;10.46;54.46;101028.97;4825549;28;127792;-62
2021/04/08 07:27:00;;;;;;;3.95;0.60;;;;;;;10.42;54.63;101028.66;4846076;28;97909;-61
2021/04/08 07:29:41;;;;;;;2.88;0.60;;;;;;;10.55;53.97;101027.44;4821345;28;97883;-62
2021/04/08 07:32:14;;;;;;;2.97;0.68;;;;;;;10.60;53.24;101030.19;4819699;28;98535;-62
2021/04/08 07:34:42;;;;;;;3.90;0.73;;;;;;;10.75;54.03;101026.81;4821071;28;98677;-62
2021/04/08 07:37:08;;;;;;;3.83;0.77;;;;;;;10.90;52.73;101043.16;4820353;28;98212;-59
2021/04/08 07:39:40;;;;;;;3.67;0.77;;;;;;;10.83;52.94;101050.63;4818245;28;97983;-59
2021/04/08 07:42:10;;;;;;;4.53;0.60;;;;;;;10.90;53.16;101053.13;4819109;28;98410;-62
2021/04/08 07:44:54;;;;;;;3.10;0.50;;;;;;;10.98;53.21;101055.38;4839583;28;99188;-62
2021/04/08 07:47:34;;;;;;;4.15;0.75;;;;;;;10.97;52.93;101065.34;4820833;28;108426;-62
2021/04/08 07:50:12;;;;;;;4.25;0.77;;;;;;;10.85;53.57;101071.97;4820491;28;97960;-62
2021/04/08 07:52:46;;;;;;;4.43;0.60;;;;;;;10.86;53.79;101070.91;4824796;28;98368;-62
2021/04/08 07:55:18;;;;;;;6.15;0.63;;;;;;;10.99;53.91;101081.28;4819854;28;99157;-57
2021/04/08 07:57:50;;;;;;;3.95;0.70;;;;;;;11.46;52.05;101086.00;4820726;28;98062;-59
2021/04/08 08:00:19;;;;;;;5.10;0.98;;;;;;;11.79;51.66;101080.31;4861494;28;98137;-59
2021/04/08 08:02:45;;;;;;;5.43;0.80;;;;;;;11.59;52.13;101077.44;4823039;28;99406;-59
2021/04/08 08:05:29;;;;;;;5.15;0.70;;;;;;;11.44;52.60;101086.28;4821355;28;98624;-62
2021/04/08 08:08:09;;;;;;;4.53;0.60;;;;;;;11.39;52.46;101091.59;4821054;28;98333;-63
2021/04/08 08:10:39;;;;;;;4.13;0.60;;;;;;;11.36;53.56;101091.31;4852552;28;98135;-62
2021/04/08 08:13:06;;;;;;;3.42;0.70;;;;;;;11.58;52.87;101091.22;4857587;28;99355;-62
2021/04/08 08:15:32;;;;;;;4.80;0.82;;;;;;;11.32;53.43;101101.84;4824250;28;98138;-62
2021/04/08 08:17:58;;;;;;;4.05;0.77;;;;;;;11.39;52.62;101107.81;4829082;28;126778;-59
2021/04/08 08:20:26;;;;;;;4.05;0.60;;;;;;;11.28;53.58;101108.81;4821397;28;100505;-62
2021/04/08 08:22:52;;;;;;;4.65;0.68;;;;;;;11.12;54.38;101109.72;4830927;28;98916;-59
2021/04/08 08:25:26;;;;;;;4.32;0.77;;;;;;;11.13;54.00;101122.97;4822302;28;98703;-59
2021/04/08 08:27:54;;;;;;;3.92;0.57;;;;;;;11.20;53.71;101117.34;4821163;28;97842;-59
2021/04/08 08:30:31;;;;;;;4.93;0.52;;;;;;;11.24;53.25;101132.78;4827704;28;98290;-62
2021/04/08 08:33:16;;;;;;;4.32;0.68;;;;;;;11.34;53.13;101123.97;4821039;28;97886;-59
2021/04/08 08:35:42;;;;;;;4.35;0.70;;;;;;;11.22;53.64;101121.44;4845127;28;98774;-62
2021/04/08 08:38:17;;;;;;;3.53;0.60;;;;;;;11.06;53.10;101133.97;4821837;28;122950;-62
2021/04/08 08:40:45;;;;;;;3.00;0.57;;;;;;;10.98;53.54;101144.41;4824623;28;97965;-59
2021/04/08 08:43:13;;;;;;;3.28;0.60;;;;;;;10.99;54.51;101149.53;4822453;28;98965;-59
2021/04/08 08:45:39;;;;;;;4.47;0.60;;;;;;;10.89;54.56;101157.53;4829281;28;98653;-62
2021/04/08 08:48:16;;;;;;;4.95;0.80;;;;;;;11.00;53.92;101158.44;4859541;28;97813;-59
2021/04/08 08:50:43;;;;;;;2.88;0.60;;;;;;;11.29;52.81;101154.44;4834822;28;98041;-59
2021/04/08 08:53:10;;;;;;;4.05;0.50;;;;;;;11.67;51.99;101155.31;4820675;28;98488;-59
2021/04/08 08:55:37;;;;;;;4.68;0.82;;;;;;;15.95;42.05;101134.47;4825541;28;98310;-62
2021/04/08 08:58:03;;;;;;;4.22;0.77;;;;;;;15.45;43.48;101131.91;4822703;28;117521;-63
2021/04/08 09:00:30;;;;;;;3.13;0.50;;;;;;;16.42;42.11;101113.81;4820839;28;99306;-63
2021/04/08 09:02:58;;;;;;;3.75;0.70;;;;;;;18.23;39.23;101122.47;4822747;28;97872;-60
2021/04/08 09:05:27;;;;;;;2.45;0.50;;;;;;;20.91;34.67;101104.31;4835181;28;98122;-60
2021/04/08 09:07:55;;;;;;;1.75;0.50;;;;;;;23.33;31.25;101115.44;4828390;28;99132;-63
2021/04/08 09:10:30;;;;;;;2.83;0.75;;;;;;;24.76;29.71;101113.91;4854607;28;97928;-63
2021/04/08 09:12:56;;;;;;;2.60;0.60;;;;;;;25.91;29.15;101124.28;4824028;28;98012;-60
2021/04/08 09:15:22;;;;;;;3.30;0.40;;;;;;;23.48;32.79;101142.31;4856336;28;98558;-60
2021/04/08 09:17:55;;;;;;;2.20;0.38;;;;;;;21.88;35.55;101147.78;4845177;28;109142;-63
2021/04/08 09:20:22;;;;;;;2.58;0.52;;;;;;;22.12;34.67;101146.41;4814178;28;97931;-60
2021/04/08 09:23:03;;;;;;;3.95;0.52;;;;;;;20.84;36.17;101156.84;4819614;28;98680;-63
2021/04/08 09:25:37;;;;;;;3.50;0.60;;;;;;;20.25;37.18;101156.31;4849060;28;98180;-63
2021/04/08 09:28:07;;;;;;;2.92;0.55;;;;;;;22.12;33.78;101141.72;4826181;28;98442;-63
2021/04/08 09:30:59;;;;;;;3.40;0.60;;;;;;;21.26;35.49;101149.00;4836270;28;98056;-63
2021/04/08 09:33:43;;;;;;;2.37;0.47;;;;;;;20.63;36.53;101158.56;4828957;28;98348;-60
2021/04/08 09:36:21;;;;;;;2.67;0.30;;;;;;;19.51;37.95;101156.84;4821312;28;98189;-64
2021/04/08 09:38:59;;;;;;;3.63;0.73;;;;;;;18.72;39.10;101162.72;4849911;28;98051;-63
2021/04/08 09:41:51;;;;;;;4.03;0.50;;;;;;;18.04;40.05;101169.75;4858169;28;98147;-59
2021/04/08 09:44:18;;;;;;;1.92;0.30;;;;;;;17.45;41.33;101176.72;4822143;28;99226;-59
2021/04/08 09:46:54;;;;;;;2.75;0.40;;;;;;;17.13;41.88;101180.16;4821721;28;98298;-59
2021/04/08 09:49:42;;;;;;;3.97;0.60;;;;;;;20.59;34.93;101166.63;4827464;28;98203;-63
2021/04/08 09:52:09;;;;;;;3.33;0.52;;;;;;;21.24;34.44;101143.00;4823636;28;98151;-60
2021/04/08 09:54:53;;;;;;;2.90;0.70;;;;;;;21.55;34.12;101151.06;4821481;28;104810;-63
2021/04/08 09:57:40;;;;;;;3.38;0.40;;;;;;;20.33;36.27;101162.97;4834270;28;99127;-63
2021/04/08 10:00:14;;;;;;;1.88;0.40;;;;;;;19.37;37.66;101173.31;4817279;28;98333;-64
2021/04/08 10:02:59;;;;;;;3.05;0.43;;;;;;;18.57;38.77;101180.19;4822424;28;97938;-63
2021/04/08 10:05:36;;;;;;;2.17;0.40;;;;;;;17.54;40.82;101177.66;4820484;28;98527;-60
2021/04/08 10:08:03;;;;;;;2.92;0.50;;;;;;;17.19;41.57;101195.34;4820981;28;101792;-63
2021/04/08 10:10:42;;;;;;;1.73;0.38;;;;;;;17.41;41.11;101189.31;4827748;28;98317;-59
2021/04/08 10:13:25;;;;;;;3.28;0.40;;;;;;;18.45;39.11;101179.09;4859270;28;97927;-59
2021/04/08 10:15:57;;;;;;;1.90;0.40;;;;;;;23.80;30.00;101153.69;4873221;28;98342;-60
2021/04/08 10:18:26;;;;;;;3.23;0.43;;;;;;;22.05;33.38;101166.94;4856221;28;99298;-63
2021/04/08 10:20:57;;;;;;;1.98;0.43;;;;;;;22.86;32.72;101173.34;4819616;28;98163;-60
2021/04/08 10:23:43;;;;;;;2.33;0.43;;;;;;;21.88;34.24;101171.66;4823532;28;106378;-60
2021/04/08 10:26:16;;;;;;;2.45;0.50;;;;;;;20.58;36.30;101184.16;4889656;28;100183;-60
2021/04/08 10:28:46;;;;;;;2.55;0.60;;;;;;;19.60;37.83;101182.31;4882629;28;98270;-59
2021/04/08 10:31:29;;;;;;;2.30;0.70;;;;;;;18.59;39.50;101191.63;4898473;28;98371;-59
2021/04/08 10:34:07;;;;;;;2.53;0.60;;;;;;;17.77;40.86;101194.22;4836547;28;98130;-59
2021/04/08 10:36:40;;;;;;;2.80;0.75;;;;;;;17.01;42.55;101201.56;4818134;28;98446;-59
2021/04/08 10:39:21;;;;;;;3.67;0.70;;;;;;;16.61;43.04;101211.84;4827289;28;98651;-62
2021/04/08 10:42:09;;;;;;;4.15;0.60;;;;;;;16.67;42.29;101202.53;4831291;28;107811;-60
2021/04/08 10:44:53;;;;;;;2.53;0.65;;;;;;;16.84;42.01;101200.16;4852783;28;98562;-63
2021/04/08 10:47:21;;;;;;;3.00;0.60;;;;;;;17.40;40.75;101193.13;4810795;28;99019;-59
2021/04/08 10:49:58;;;;;;;3.13;0.52;;;;;;;17.82;39.59;101194.13;4818617;28;108506;-60
2021/04/08 10:52:30;;;;;;;2.45;0.40;;;;;;;17.36;40.70;101195.63;4821404;28;98371;-63
2021/04/08 10:55:17;;;;;;;2.45;0.50;;;;;;;17.05;41.08;101194.44;4832345;28;98123;-59
2021/04/08 10:57:43;;;;;;;2.63;0.50;;;;;;;16.87;41.77;101204.22;4848270;28;98781;-59
2021/04/08 11:00:12;;;;;;;2.35;0.40;;;;;;;16.34;43.60;101215.13;4819652;28;99431;-62
2021/04/08 11:02:41;;;;;;;3.40;0.40;;;;;;;16.06;43.44;101209.41;4849655;28;98042;-63
2021/04/08 11:05:20;;;;;;;2.33;0.50;;;;;;;15.60;44.91;101217.06;4849375;28;99227;-59
2021/04/08 11:07:49;;;;;;;3.13;0.50;;;;;;;15.41;45.62;101212.34;4847756;28;98517;-63
2021/04/08 11:10:22;;;;;;;2.92;0.40;;;;;;;15.79;45.30;101211.81;4817997;28;98719;-63
2021/04/08 11:12:49;;;;;;;1.85;0.40;;;;;;;19.52;36.91;101190.44;4818908;28;98022;-59
2021/04/08 11:15:16;;;;;;;2.33;0.40;;;;;;;21.83;33.68;101178.13;4819014;28;98457;-60
2021/04/08 11:17:47;;;;;;;1.50;0.40;;;;;;;23.79;30.98;101176.84;4819372;28;98203;-60
2021/04/08 11:20:14;;;;;;;2.30;0.47;;;;;;;25.72;28.92;101169.09;4833356;28;99602;-63
2021/04/08 11:22:43;;;;;;;1.58;0.38;;;;;;;22.92;33.18;101183.06;4856880;28;98662;-63
2021/04/08 11:25:11;;;;;;;2.13;0.30;;;;;;;21.55;35.68;101200.44;4819233;28;98182;-60
2021/04/08 11:27:43;;;;;;;1.30;0.30;;;;;;;21.24;35.91;101214.28;4833942;28;98438;-63
2021/04/08 11:30:10;;;;;;;1.63;0.40;;;;;;;22.73;33.30;101190.91;4818542;28;99449;-63
2021/04/08 11:32:50;;;;;;;2.17;0.30;;;;;;;24.56;30.17;101196.38;4821509;28;98349;-63
2021/04/08 11:35:36;;;;;;;2.25;0.30;;;;;;;22.35;33.98;101191.72;4823219;28;102079;-60
2021/04/08 11:38:10;;;;;;;3.53;0.40;;;;;;;21.39;35.37;101213.03;4822058;28;98425;-60
2021/04/08 11:40:57;;;;;;;1.67;0.30;;;;;;;20.51;36.33;101218.59;4823059;28;97818;-63